Airfield :







YOU CAN JOIN US ON...

 
LOGIN :

Register | Disclaimer

   EN    FR    IT 

 









Legend :    VFR   Marginal VFR   IFR   Intensive IFR   Very Intensive IFR
Visi :
Ceiling :
>= 8 km
>= 3000ft
5 to 8 km
1000 to 3000 ft
1500m to 5 km
500 to 1000 ft
800 to 1500m
200 to 500 ft
< 800m
< 200 ft
Symbols :   Thunderstorms  Fog  Heavy snow  Heavy precipitations  Wind > 20 kt






- Airport Elevation : 122 ft
- IATA code : YTQ


CYTQ - Tasiujaq

CURRENT METAR :
  • 161900Z 30008G16KT 8SM OVC012 03/02 A2960 RMK ST8 SLP027

EXPIRED METARs :
  • 161800Z 31008KT 8SM OVC008 03/02 A2959 RMK ST8 SLP023
  • 161700Z 31010KT 6SM -RA OVC010 03/01 A2957 RMK ST8 SLP019
  • 161600Z 31007KT 6SM -RA OVC010 03/01 A2956 RMK ST8 SLP015

TAF TAF CYTQ
Valid from the 16 at 14:00 until the 16 at 21:00 UTC


161338Z 1614/1621 35012KT P6SM -RA SCT003 OVC015
TEMPO 1614/1618 2SM -RA BR BKN003 OVC015
BECMG 1616/1618 29012KT
FM161800 29012KT P6SM SCT007 OVC015
TEMPO 1618/1621 5SM -RA BR BKN007 OVC015 RMK NXT FCST WILL BE ISSUED AT 171345Z



MET'MAP, your aeronautical weather chart ! - Copyright ORBIFLY December 2007 - Disclaimer

ORBIFLY MET'MAP TEAM :

Programming & Development : Alexandra Zaïnal
Concept & Development : Baudouin d'Aumeries
Co-Development & Prog : Marc-Olivier Méhu
Technical & hardware support : Manuel Goepfert

Contact : metmap@orbifly.com




SOURCES & CREDITS :

   NOAA